sensor_id;sensor_type;location;lat;lon;timestamp;pressure;altitude;pressure_sealevel;temperature;humidity
39435;BME280;66825;51.880;-0.518;2023-12-07T00:02:05;100518.75;;;15.67;38.38
39435;BME280;66825;51.880;-0.518;2023-12-07T00:04:31;100500.00;;;15.65;38.41
39435;BME280;66825;51.880;-0.518;2023-12-07T00:06:56;100495.41;;;15.66;38.56
39435;BME280;66825;51.880;-0.518;2023-12-07T00:09:21;100491.34;;;15.63;38.49
39435;BME280;66825;51.880;-0.518;2023-12-07T00:11:47;100480.47;;;15.63;38.61
39435;BME280;66825;51.880;-0.518;2023-12-07T00:14:12;100479.66;;;15.63;38.46
39435;BME280;66825;51.880;-0.518;2023-12-07T00:16:37;100468.25;;;15.61;38.59
39435;BME280;66825;51.880;-0.518;2023-12-07T00:19:03;100470.97;;;15.61;38.55
39435;BME280;66825;51.880;-0.518;2023-12-07T00:21:28;100463.13;;;15.59;38.65
39435;BME280;66825;51.880;-0.518;2023-12-07T00:23:53;100468.84;;;15.57;38.75
39435;BME280;66825;51.880;-0.518;2023-12-07T00:26:19;100465.31;;;15.57;38.67
39435;BME280;66825;51.880;-0.518;2023-12-07T00:28:44;100467.22;;;15.56;38.57
39435;BME280;66825;51.880;-0.518;2023-12-07T00:31:09;100363.38;;;14.82;38.61
39435;BME280;66825;51.880;-0.518;2023-12-07T00:33:35;100480.28;;;15.54;38.72
39435;BME280;66825;51.880;-0.518;2023-12-07T00:36:01;100468.91;;;15.52;38.51
39435;BME280;66825;51.880;-0.518;2023-12-07T00:38:26;100466.19;;;15.52;38.66
39435;BME280;66825;51.880;-0.518;2023-12-07T00:40:51;100461.84;;;15.51;38.62
39435;BME280;66825;51.880;-0.518;2023-12-07T00:43:17;100469.16;;;15.51;38.62
39435;BME280;66825;51.880;-0.518;2023-12-07T00:45:42;100341.75;;;14.71;38.55
39435;BME280;66825;51.880;-0.518;2023-12-07T00:48:07;100459.69;;;15.48;38.73
39435;BME280;66825;51.880;-0.518;2023-12-07T00:50:33;100458.91;;;15.48;38.58
39435;BME280;66825;51.880;-0.518;2023-12-07T00:52:58;100459.16;;;15.46;38.75
39435;BME280;66825;51.880;-0.518;2023-12-07T00:55:23;100461.88;;;15.46;38.66
39435;BME280;66825;51.880;-0.518;2023-12-07T00:57:49;100448.31;;;15.46;38.64
39435;BME280;66825;51.880;-0.518;2023-12-07T01:00:14;100456.75;;;15.45;38.66
39435;BME280;66825;51.880;-0.518;2023-12-07T01:02:40;100457.81;;;15.44;38.77
39435;BME280;66825;51.880;-0.518;2023-12-07T01:05:05;100452.41;;;15.44;38.63
39435;BME280;66825;51.880;-0.518;2023-12-07T01:07:31;100453.50;;;15.43;38.89
39435;BME280;66825;51.880;-0.518;2023-12-07T01:09:56;100449.19;;;15.42;38.67
39435;BME280;66825;51.880;-0.518;2023-12-07T01:12:21;100450.28;;;15.40;38.76
39435;BME280;66825;51.880;-0.518;2023-12-07T01:14:47;100448.66;;;15.39;38.75
39435;BME280;66825;51.880;-0.518;2023-12-07T01:17:12;100454.09;;;15.39;38.82
39435;BME280;66825;51.880;-0.518;2023-12-07T01:19:37;100439.97;;;15.37;38.74
39435;BME280;66825;51.880;-0.518;2023-12-07T01:22:03;100442.69;;;15.37;38.85
39435;BME280;66825;51.880;-0.518;2023-12-07T01:24:28;100441.06;;;15.36;38.85
39435;BME280;66825;51.880;-0.518;2023-12-07T01:26:54;100437.56;;;15.36;38.75
39435;BME280;66825;51.880;-0.518;2023-12-07T01:29:20;100441.34;;;15.35;38.72
39435;BME280;66825;51.880;-0.518;2023-12-07T01:31:45;100435.13;;;15.34;38.85
39435;BME280;66825;51.880;-0.518;2023-12-07T01:34:10;100435.41;;;15.33;38.91
39435;BME280;66825;51.880;-0.518;2023-12-07T01:36:36;100440.03;;;15.32;38.83
39435;BME280;66825;51.880;-0.518;2023-12-07T01:39:01;100434.59;;;15.32;38.86
39435;BME280;66825;51.880;-0.518;2023-12-07T01:41:26;100429.47;;;15.31;38.88
39435;BME280;66825;51.880;-0.518;2023-12-07T01:43:52;100435.97;;;15.30;38.93
39435;BME280;66825;51.880;-0.518;2023-12-07T01:46:17;100426.22;;;15.29;38.82
39435;BME280;66825;51.880;-0.518;2023-12-07T01:48:43;100426.22;;;15.29;38.84
39435;BME280;66825;51.880;-0.518;2023-12-07T01:51:09;100430.00;;;15.28;38.92
39435;BME280;66825;51.880;-0.518;2023-12-07T01:53:37;100427.59;;;15.26;38.82
39435;BME280;66825;51.880;-0.518;2023-12-07T01:56:03;100425.69;;;15.27;38.86
39435;BME280;66825;51.880;-0.518;2023-12-07T01:58:29;100416.75;;;15.26;38.92
39435;BME280;66825;51.880;-0.518;2023-12-07T02:00:55;100415.13;;;15.25;38.97
39435;BME280;66825;51.880;-0.518;2023-12-07T02:03:21;100409.97;;;15.23;39.00
39435;BME280;66825;51.880;-0.518;2023-12-07T02:05:47;100409.97;;;15.23;38.93
39435;BME280;66825;51.880;-0.518;2023-12-07T02:08:13;100405.34;;;15.24;38.87
39435;BME280;66825;51.880;-0.518;2023-12-07T02:10:38;100408.34;;;15.22;38.92
39435;BME280;66825;51.880;-0.518;2023-12-07T02:13:04;100404.03;;;15.21;39.04
39435;BME280;66825;51.880;-0.518;2023-12-07T02:15:30;100399.69;;;15.20;38.87
39435;BME280;66825;51.880;-0.518;2023-12-07T02:17:57;100388.81;;;15.20;39.21
39435;BME280;66825;51.880;-0.518;2023-12-07T02:20:46;100397.25;;;15.19;39.19
39435;BME280;66825;51.880;-0.518;2023-12-07T02:23:17;100378.25;;;15.19;39.12
39435;BME280;66825;51.880;-0.518;2023-12-07T02:25:55;100389.13;;;15.19;38.95
39435;BME280;66825;51.880;-0.518;2023-12-07T02:28:23;100275.97;;;14.55;39.13
39435;BME280;66825;51.880;-0.518;2023-12-07T02:30:48;100379.63;;;15.16;38.96
39435;BME280;66825;51.880;-0.518;2023-12-07T02:33:13;100368.75;;;15.16;39.09
39435;BME280;66825;51.880;-0.518;2023-12-07T02:35:40;100358.19;;;15.15;38.98
39435;BME280;66825;51.880;-0.518;2023-12-07T02:38:06;100351.97;;;15.14;38.98
39435;BME280;66825;51.880;-0.518;2023-12-07T02:40:32;100356.59;;;15.14;39.13
39435;BME280;66825;51.880;-0.518;2023-12-07T02:42:58;100217.00;;;14.37;39.15
39435;BME280;66825;51.880;-0.518;2023-12-07T02:45:24;100331.66;;;15.12;39.14
39435;BME280;66825;51.880;-0.518;2023-12-07T02:47:50;100334.38;;;15.12;39.05
39435;BME280;66825;51.880;-0.518;2023-12-07T02:50:16;100333.53;;;15.11;39.37
39435;BME280;66825;51.880;-0.518;2023-12-07T02:52:41;100218.91;;;14.36;39.11
39435;BME280;66825;51.880;-0.518;2023-12-07T02:55:07;100331.13;;;15.09;38.98
39435;BME280;66825;51.880;-0.518;2023-12-07T02:57:32;100324.88;;;15.09;39.15
39435;BME280;66825;51.880;-0.518;2023-12-07T03:00:02;100314.31;;;15.07;39.14
39435;BME280;66825;51.880;-0.518;2023-12-07T03:02:33;100316.22;;;15.07;39.01
39435;BME280;66825;51.880;-0.518;2023-12-07T03:04:58;100331.69;;;15.06;39.36
39435;BME280;66825;51.880;-0.518;2023-12-07T03:07:23;100323.53;;;15.06;39.21
39435;BME280;66825;51.880;-0.518;2023-12-07T03:09:48;100316.50;;;15.05;39.13
39435;BME280;66825;51.880;-0.518;2023-12-07T03:12:14;100304.03;;;15.04;38.77
39435;BME280;66825;51.880;-0.518;2023-12-07T03:14:39;100300.50;;;15.04;39.17
39435;BME280;66825;51.880;-0.518;2023-12-07T03:17:04;100294.28;;;15.03;39.43
39435;BME280;66825;51.880;-0.518;2023-12-07T03:19:30;100289.94;;;15.02;39.14
39435;BME280;66825;51.880;-0.518;2023-12-07T03:21:55;100286.41;;;15.02;39.39
39435;BME280;66825;51.880;-0.518;2023-12-07T03:24:21;100282.91;;;15.01;39.14
39435;BME280;66825;51.880;-0.518;2023-12-07T03:26:46;100287.53;;;15.01;39.25
39435;BME280;66825;51.880;-0.518;2023-12-07T03:29:11;100268.00;;;14.99;39.19
39435;BME280;66825;51.880;-0.518;2023-12-07T03:31:37;100280.50;;;15.00;39.18
39435;BME280;66825;51.880;-0.518;2023-12-07T03:34:02;100265.31;;;14.99;39.15
39435;BME280;66825;51.880;-0.518;2023-12-07T03:36:28;100261.75;;;14.98;39.19
39435;BME280;66825;51.880;-0.518;2023-12-07T03:38:54;100259.34;;;14.97;39.26
39435;BME280;66825;51.880;-0.518;2023-12-07T03:41:19;100256.63;;;14.97;39.04
39435;BME280;66825;51.880;-0.518;2023-12-07T03:43:44;100250.41;;;14.96;39.36
39435;BME280;66825;51.880;-0.518;2023-12-07T03:46:10;100247.69;;;14.96;39.44
39435;BME280;66825;51.880;-0.518;2023-12-07T03:48:35;100242.53;;;14.95;39.06
39435;BME280;66825;51.880;-0.518;2023-12-07T03:51:00;100240.66;;;14.95;39.37
39435;BME280;66825;51.880;-0.518;2023-12-07T03:53:26;100240.94;;;14.93;39.33
39435;BME280;66825;51.880;-0.518;2023-12-07T03:55:52;100245.53;;;14.93;39.47
39435;BME280;66825;51.880;-0.518;2023-12-07T03:58:17;100246.63;;;14.92;39.29
39435;BME280;66825;51.880;-0.518;2023-12-07T04:00:43;100242.84;;;14.93;39.21
39435;BME280;66825;51.880;-0.518;2023-12-07T04:03:09;100240.41;;;14.91;39.33
39435;BME280;66825;51.880;-0.518;2023-12-07T04:05:34;100226.03;;;14.91;39.38
39435;BME280;66825;51.880;-0.518;2023-12-07T04:08:00;100240.41;;;14.91;39.48
39435;BME280;66825;51.880;-0.518;2023-12-07T04:10:25;100235.28;;;14.90;39.60
39435;BME280;66825;51.880;-0.518;2023-12-07T04:12:50;100229.84;;;14.90;39.61
39435;BME280;66825;51.880;-0.518;2023-12-07T04:15:18;100233.66;;;14.89;39.51
39435;BME280;66825;51.880;-0.518;2023-12-07T04:17:43;100232.84;;;14.88;39.32
39435;BME280;66825;51.880;-0.518;2023-12-07T04:20:09;100229.31;;;14.88;39.44
39435;BME280;66825;51.880;-0.518;2023-12-07T04:22:34;100233.94;;;14.87;39.55
39435;BME280;66825;51.880;-0.518;2023-12-07T04:24:59;100242.06;;;14.87;39.57
39435;BME280;66825;51.880;-0.518;2023-12-07T04:27:25;100230.41;;;14.87;39.33
39435;BME280;66825;51.880;-0.518;2023-12-07T04:29:50;100232.34;;;14.86;39.39
39435;BME280;66825;51.880;-0.518;2023-12-07T04:32:16;100230.72;;;14.85;39.47
39435;BME280;66825;51.880;-0.518;2023-12-07T04:34:41;100218.25;;;14.84;39.28
39435;BME280;66825;51.880;-0.518;2023-12-07T04:37:06;100208.19;;;14.85;39.16
39435;BME280;66825;51.880;-0.518;2023-12-07T04:39:32;100204.69;;;14.84;39.35
39435;BME280;66825;51.880;-0.518;2023-12-07T04:41:57;100192.22;;;14.83;39.58
39435;BME280;66825;51.880;-0.518;2023-12-07T04:44:22;100188.69;;;14.83;39.64
39435;BME280;66825;51.880;-0.518;2023-12-07T04:46:49;100185.16;;;14.82;39.65
39435;BME280;66825;51.880;-0.518;2023-12-07T04:49:15;100185.16;;;14.82;39.51
39435;BME280;66825;51.880;-0.518;2023-12-07T04:51:40;100171.59;;;14.82;39.64
39435;BME280;66825;51.880;-0.518;2023-12-07T04:54:07;100179.22;;;14.80;39.50
39435;BME280;66825;51.880;-0.518;2023-12-07T04:56:32;100164.56;;;14.81;39.53
39435;BME280;66825;51.880;-0.518;2023-12-07T04:58:57;100173.78;;;14.80;39.66
39435;BME280;66825;51.880;-0.518;2023-12-07T05:01:23;100166.78;;;14.79;39.71
39435;BME280;66825;51.880;-0.518;2023-12-07T05:03:48;100159.44;;;14.80;39.52
39435;BME280;66825;51.880;-0.518;2023-12-07T05:06:14;100157.81;;;14.79;39.44
39435;BME280;66825;51.880;-0.518;2023-12-07T05:08:39;100149.69;;;14.79;39.85
39435;BME280;66825;51.880;-0.518;2023-12-07T05:11:05;100154.31;;;14.78;39.56
39435;BME280;66825;51.880;-0.518;2023-12-07T05:13:32;100145.34;;;14.77;39.75
39435;BME280;66825;51.880;-0.518;2023-12-07T05:15:58;100147.25;;;14.77;39.24
39435;BME280;66825;51.880;-0.518;2023-12-07T05:18:25;100147.56;;;14.75;39.40
39435;BME280;66825;51.880;-0.518;2023-12-07T05:20:50;100145.66;;;14.76;39.72
39435;BME280;66825;51.880;-0.518;2023-12-07T05:23:15;100138.59;;;14.75;39.86
39435;BME280;66825;51.880;-0.518;2023-12-07T05:25:41;100140.50;;;14.74;39.44
39435;BME280;66825;51.880;-0.518;2023-12-07T05:28:06;100142.41;;;14.74;39.66
39435;BME280;66825;51.880;-0.518;2023-12-07T05:30:31;100145.13;;;14.74;39.53
39435;BME280;66825;51.880;-0.518;2023-12-07T05:32:57;100155.16;;;14.73;39.67
39435;BME280;66825;51.880;-0.518;2023-12-07T05:35:22;100157.06;;;14.73;39.39
39435;BME280;66825;51.880;-0.518;2023-12-07T05:37:48;100150.03;;;14.72;39.54
39435;BME280;66825;51.880;-0.518;2023-12-07T05:40:14;100147.31;;;14.72;39.53
39435;BME280;66825;51.880;-0.518;2023-12-07T05:42:39;100137.56;;;14.71;39.50
39435;BME280;66825;51.880;-0.518;2023-12-07T05:45:04;100131.31;;;14.70;39.65
39435;BME280;66825;51.880;-0.518;2023-12-07T05:47:31;100125.91;;;14.70;39.65
39435;BME280;66825;51.880;-0.518;2023-12-07T05:49:56;100110.72;;;14.69;39.83
39435;BME280;66825;51.880;-0.518;2023-12-07T05:52:25;100106.41;;;14.68;39.72
39435;BME280;66825;51.880;-0.518;2023-12-07T05:54:50;99977.66;;;13.93;39.81
39435;BME280;66825;51.880;-0.518;2023-12-07T05:57:15;100080.91;;;14.69;39.65
39435;BME280;66825;51.880;-0.518;2023-12-07T05:59:40;100082.00;;;14.68;39.67
39435;BME280;66825;51.880;-0.518;2023-12-07T06:02:07;100080.41;;;14.67;40.01
39435;BME280;66825;51.880;-0.518;2023-12-07T06:04:33;100083.09;;;14.67;39.65
39435;BME280;66825;51.880;-0.518;2023-12-07T06:06:58;100084.19;;;14.66;39.98
39435;BME280;66825;51.880;-0.518;2023-12-07T06:09:24;100079.03;;;14.65;39.94
39435;BME280;66825;51.880;-0.518;2023-12-07T06:11:49;100076.34;;;14.65;39.82
39435;BME280;66825;51.880;-0.518;2023-12-07T06:14:14;100083.38;;;14.66;40.00
39435;BME280;66825;51.880;-0.518;2023-12-07T06:16:40;100082.84;;;14.64;39.77
39435;BME280;66825;51.880;-0.518;2023-12-07T06:19:05;100080.13;;;14.64;39.78
39435;BME280;66825;51.880;-0.518;2023-12-07T06:21:30;100082.84;;;14.64;39.73
39435;BME280;66825;51.880;-0.518;2023-12-07T06:23:56;100079.31;;;14.63;39.74
39435;BME280;66825;51.880;-0.518;2023-12-07T06:26:21;100078.53;;;14.63;39.77
39435;BME280;66825;51.880;-0.518;2023-12-07T06:28:47;100067.66;;;14.63;39.87
39435;BME280;66825;51.880;-0.518;2023-12-07T06:31:12;100062.25;;;14.63;39.91
39435;BME280;66825;51.880;-0.518;2023-12-07T06:33:40;99965.38;;;14.01;39.85
39435;BME280;66825;51.880;-0.518;2023-12-07T06:36:05;100055.22;;;14.61;39.92
39435;BME280;66825;51.880;-0.518;2023-12-07T06:38:30;100040.03;;;14.60;39.95
39435;BME280;66825;51.880;-0.518;2023-12-07T06:40:56;100049.00;;;14.61;39.79
39435;BME280;66825;51.880;-0.518;2023-12-07T06:43:21;100059.00;;;14.60;39.94
39435;BME280;66825;51.880;-0.518;2023-12-07T06:45:47;100052.78;;;14.60;40.20
39435;BME280;66825;51.880;-0.518;2023-12-07T06:48:13;100054.69;;;14.59;40.28
39435;BME280;66825;51.880;-0.518;2023-12-07T06:50:39;100048.47;;;14.59;40.13
39435;BME280;66825;51.880;-0.518;2023-12-07T06:53:04;100051.19;;;14.59;40.12
39435;BME280;66825;51.880;-0.518;2023-12-07T06:55:29;100055.78;;;14.58;39.88
39435;BME280;66825;51.880;-0.518;2023-12-07T06:57:55;100041.44;;;14.58;39.93
39435;BME280;66825;51.880;-0.518;2023-12-07T07:00:21;100058.78;;;14.57;40.39
39435;BME280;66825;51.880;-0.518;2023-12-07T07:02:47;100058.78;;;14.57;39.92
39435;BME280;66825;51.880;-0.518;2023-12-07T07:05:12;100055.28;;;14.56;40.24
39435;BME280;66825;51.880;-0.518;2023-12-07T07:07:38;100059.09;;;14.55;40.04
39435;BME280;66825;51.880;-0.518;2023-12-07T07:10:03;100040.09;;;14.55;40.08
39435;BME280;66825;51.880;-0.518;2023-12-07T07:12:29;100050.94;;;14.55;39.95
39435;BME280;66825;51.880;-0.518;2023-12-07T07:14:54;100034.69;;;14.55;40.42
39435;BME280;66825;51.880;-0.518;2023-12-07T07:17:20;100024.94;;;14.54;39.95
39435;BME280;66825;51.880;-0.518;2023-12-07T07:19:46;100022.22;;;14.54;40.38
39435;BME280;66825;51.880;-0.518;2023-12-07T07:22:11;100026.84;;;14.54;40.39
39435;BME280;66825;51.880;-0.518;2023-12-07T07:24:36;100020.31;;;14.55;40.44
39435;BME280;66825;51.880;-0.518;2023-12-07T07:27:02;100026.03;;;14.53;40.13
39435;BME280;66825;51.880;-0.518;2023-12-07T07:29:28;100021.69;;;14.52;40.11
39435;BME280;66825;51.880;-0.518;2023-12-07T07:31:53;100016.28;;;14.52;40.50
39435;BME280;66825;51.880;-0.518;2023-12-07T07:34:18;100010.06;;;14.52;39.96
39435;BME280;66825;51.880;-0.518;2023-12-07T07:36:44;100007.34;;;14.52;40.04
39435;BME280;66825;51.880;-0.518;2023-12-07T07:39:09;100002.19;;;14.50;40.55
39435;BME280;66825;51.880;-0.518;2023-12-07T07:41:35;99995.69;;;14.51;40.47
39435;BME280;66825;51.880;-0.518;2023-12-07T07:44:01;99989.16;;;14.52;39.94
39435;BME280;66825;51.880;-0.518;2023-12-07T07:46:26;99989.69;;;14.54;39.99
39435;BME280;66825;51.880;-0.518;2023-12-07T07:48:51;99977.75;;;14.55;39.71
39435;BME280;66825;51.880;-0.518;2023-12-07T07:51:17;99977.16;;;14.58;39.76
39435;BME280;66825;51.880;-0.518;2023-12-07T07:53:42;99971.16;;;14.61;39.84
39435;BME280;66825;51.880;-0.518;2023-12-07T07:56:08;99979.53;;;14.65;39.95
39435;BME280;66825;51.880;-0.518;2023-12-07T07:58:34;99971.34;;;14.70;40.37
39435;BME280;66825;51.880;-0.518;2023-12-07T08:00:59;99969.69;;;14.74;40.04
39435;BME280;66825;51.880;-0.518;2023-12-07T08:03:25;99961.75;;;14.78;39.93
39435;BME280;66825;51.880;-0.518;2023-12-07T08:05:50;99980.97;;;14.82;40.11
39435;BME280;66825;51.880;-0.518;2023-12-07T08:08:15;99973.84;;;14.86;40.12
39435;BME280;66825;51.880;-0.518;2023-12-07T08:10:41;99973.28;;;14.89;39.92
39435;BME280;66825;51.880;-0.518;2023-12-07T08:13:06;99960.72;;;14.93;39.94
39435;BME280;66825;51.880;-0.518;2023-12-07T08:15:33;99970.16;;;14.96;40.33
39435;BME280;66825;51.880;-0.518;2023-12-07T08:17:58;99960.34;;;15.00;39.85
39435;BME280;66825;51.880;-0.518;2023-12-07T08:20:23;99969.81;;;15.02;39.99
39435;BME280;66825;51.880;-0.518;2023-12-07T08:22:50;99955.66;;;15.05;40.07
39435;BME280;66825;51.880;-0.518;2023-12-07T08:25:15;99966.44;;;15.11;39.97
39435;BME280;66825;51.880;-0.518;2023-12-07T08:27:42;99954.19;;;15.13;39.95
39435;BME280;66825;51.880;-0.518;2023-12-07T08:30:09;99946.56;;;15.15;40.01
39435;BME280;66825;51.880;-0.518;2023-12-07T08:32:34;99954.91;;;15.19;40.11
39435;BME280;66825;51.880;-0.518;2023-12-07T08:35:00;99955.13;;;15.22;39.92
39435;BME280;66825;51.880;-0.518;2023-12-07T08:37:25;99946.69;;;15.24;39.95
39435;BME280;66825;51.880;-0.518;2023-12-07T08:39:50;99939.84;;;15.27;39.95
39435;BME280;66825;51.880;-0.518;2023-12-07T08:42:16;99940.06;;;15.30;39.82
39435;BME280;66825;51.880;-0.518;2023-12-07T08:44:42;99934.06;;;15.33;40.15
39435;BME280;66825;51.880;-0.518;2023-12-07T08:47:08;99938.88;;;15.36;39.84
39435;BME280;66825;51.880;-0.518;2023-12-07T08:49:33;99938.28;;;15.39;39.84
39435;BME280;66825;51.880;-0.518;2023-12-07T08:51:58;99922.53;;;15.42;39.78
39435;BME280;66825;51.880;-0.518;2023-12-07T08:54:24;99924.63;;;15.45;39.74
39435;BME280;66825;51.880;-0.518;2023-12-07T08:56:49;99925.94;;;15.47;39.83
39435;BME280;66825;51.880;-0.518;2023-12-07T08:59:14;99921.53;;;15.51;39.89
39435;BME280;66825;51.880;-0.518;2023-12-07T09:01:40;99910.56;;;15.56;39.55
39435;BME280;66825;51.880;-0.518;2023-12-07T09:04:05;99910.00;;;15.60;39.65
39435;BME280;66825;51.880;-0.518;2023-12-07T09:06:30;99897.09;;;15.65;40.19
39435;BME280;66825;51.880;-0.518;2023-12-07T09:08:56;99902.16;;;15.72;40.28
39435;BME280;66825;51.880;-0.518;2023-12-07T09:11:21;99887.66;;;15.77;40.48
39435;BME280;66825;51.880;-0.518;2023-12-07T09:13:47;99881.84;;;15.83;40.43
39435;BME280;66825;51.880;-0.518;2023-12-07T09:16:12;99874.41;;;15.89;40.10
39435;BME280;66825;51.880;-0.518;2023-12-07T09:18:37;99873.19;;;15.95;40.26
39435;BME280;66825;51.880;-0.518;2023-12-07T09:21:03;99871.19;;;16.01;40.44
39435;BME280;66825;51.880;-0.518;2023-12-07T09:23:28;99872.19;;;16.05;40.42
39435;BME280;66825;51.880;-0.518;2023-12-07T09:25:54;99872.56;;;16.12;40.93
39435;BME280;66825;51.880;-0.518;2023-12-07T09:28:19;99849.06;;;16.08;40.57
39435;BME280;66825;51.880;-0.518;2023-12-07T09:30:44;99760.72;;;15.54;40.23
39435;BME280;66825;51.880;-0.518;2023-12-07T09:33:10;99869.53;;;16.28;40.25
39435;BME280;66825;51.880;-0.518;2023-12-07T09:35:35;99860.16;;;16.34;39.84
39435;BME280;66825;51.880;-0.518;2023-12-07T09:38:00;99848.38;;;16.39;39.79
39435;BME280;66825;51.880;-0.518;2023-12-07T09:40:26;99847.44;;;16.43;39.91
39435;BME280;66825;51.880;-0.518;2023-12-07T09:42:53;99855.19;;;16.50;40.35
39435;BME280;66825;51.880;-0.518;2023-12-07T09:45:18;99840.69;;;16.55;39.92
39435;BME280;66825;51.880;-0.518;2023-12-07T09:47:48;99826.97;;;16.60;40.12
39435;BME280;66825;51.880;-0.518;2023-12-07T09:50:15;99827.13;;;16.63;39.93
39435;BME280;66825;51.880;-0.518;2023-12-07T09:52:40;99812.63;;;16.68;39.60
39435;BME280;66825;51.880;-0.518;2023-12-07T09:55:07;99825.28;;;16.73;39.68
39435;BME280;66825;51.880;-0.518;2023-12-07T09:57:33;99810.78;;;16.77;39.54
39435;BME280;66825;51.880;-0.518;2023-12-07T09:59:59;99809.34;;;16.80;39.55
39435;BME280;66825;51.880;-0.518;2023-12-07T10:02:24;99815.75;;;16.84;39.92
39435;BME280;66825;51.880;-0.518;2023-12-07T10:05:03;99821.06;;;16.89;39.96
39435;BME280;66825;51.880;-0.518;2023-12-07T10:07:36;99823.72;;;16.94;39.88
39435;BME280;66825;51.880;-0.518;2023-12-07T10:10:03;99811.41;;;16.97;40.36
39435;BME280;66825;51.880;-0.518;2023-12-07T10:12:32;99817.53;;;17.03;40.11
39435;BME280;66825;51.880;-0.518;2023-12-07T10:15:01;99813.03;;;17.07;39.98
39435;BME280;66825;51.880;-0.518;2023-12-07T10:20:12;99804.13;;;17.15;39.74
39435;BME280;66825;51.880;-0.518;2023-12-07T10:22:38;99796.94;;;17.19;39.83
39435;BME280;66825;51.880;-0.518;2023-12-07T10:25:04;99799.81;;;17.23;39.95
39435;BME280;66825;51.880;-0.518;2023-12-07T10:27:29;99789.44;;;17.25;39.79
39435;BME280;66825;51.880;-0.518;2023-12-07T10:29:54;99776.00;;;17.28;39.73
39435;BME280;66825;51.880;-0.518;2023-12-07T10:32:23;99783.22;;;17.33;39.35
39435;BME280;66825;51.880;-0.518;2023-12-07T10:34:49;99775.22;;;17.37;39.60
39435;BME280;66825;51.880;-0.518;2023-12-07T10:37:14;99756.66;;;17.39;39.72
39435;BME280;66825;51.880;-0.518;2023-12-07T10:39:40;99744.34;;;17.41;39.78
39435;BME280;66825;51.880;-0.518;2023-12-07T10:42:06;99622.59;;;16.75;39.44
39435;BME280;66825;51.880;-0.518;2023-12-07T10:44:35;99736.00;;;17.46;39.81
39435;BME280;66825;51.880;-0.518;2023-12-07T10:47:01;99745.19;;;17.51;39.68
39435;BME280;66825;51.880;-0.518;2023-12-07T10:49:27;99749.97;;;17.54;39.39
39435;BME280;66825;51.880;-0.518;2023-12-07T10:51:57;99729.47;;;17.56;39.53
39435;BME280;66825;51.880;-0.518;2023-12-07T10:54:25;99742.47;;;17.59;39.55
39435;BME280;66825;51.880;-0.518;2023-12-07T10:56:54;99742.63;;;17.63;39.31
39435;BME280;66825;51.880;-0.518;2023-12-07T10:59:20;99741.19;;;17.66;39.49
39435;BME280;66825;51.880;-0.518;2023-12-07T11:01:46;99752.25;;;17.69;39.54
39435;BME280;66825;51.880;-0.518;2023-12-07T11:04:12;99749.69;;;17.73;39.76
39435;BME280;66825;51.880;-0.518;2023-12-07T11:06:39;99747.94;;;17.77;39.60
39435;BME280;66825;51.880;-0.518;2023-12-07T11:09:06;99753.25;;;17.82;39.58
39435;BME280;66825;51.880;-0.518;2023-12-07T11:14:02;99750.69;;;17.86;39.12
39435;BME280;66825;51.880;-0.518;2023-12-07T11:16:32;99743.47;;;17.90;38.95
39435;BME280;66825;51.880;-0.518;2023-12-07T11:19:00;99738.50;;;17.92;38.85
39435;BME280;66825;51.880;-0.518;2023-12-07T11:21:26;99609.75;;;17.16;38.86
39435;BME280;66825;51.880;-0.518;2023-12-07T11:23:54;99717.19;;;17.94;39.03
39435;BME280;66825;51.880;-0.518;2023-12-07T11:26:22;99712.22;;;17.96;39.05
39435;BME280;66825;51.880;-0.518;2023-12-07T11:28:47;99710.00;;;17.98;38.92
39435;BME280;66825;51.880;-0.518;2023-12-07T11:31:13;99703.09;;;18.01;39.24
39435;BME280;66825;51.880;-0.518;2023-12-07T11:33:38;99711.75;;;18.03;40.16
39435;BME280;66825;51.880;-0.518;2023-12-07T11:36:05;99701.03;;;18.06;39.79
39435;BME280;66825;51.880;-0.518;2023-12-07T11:38:31;99700.38;;;18.09;39.30
39435;BME280;66825;51.880;-0.518;2023-12-07T11:40:56;99707.41;;;18.10;39.46
39435;BME280;66825;51.880;-0.518;2023-12-07T11:43:44;99693.94;;;18.14;39.19
39435;BME280;66825;51.880;-0.518;2023-12-07T11:46:10;99680.81;;;18.16;38.85
39435;BME280;66825;51.880;-0.518;2023-12-07T11:48:35;99677.44;;;18.19;39.26
39435;BME280;66825;51.880;-0.518;2023-12-07T11:53:29;99664.75;;;18.23;38.76
39435;BME280;66825;51.880;-0.518;2023-12-07T11:55:55;99658.66;;;18.27;38.85
39435;BME280;66825;51.880;-0.518;2023-12-07T11:58:21;99651.75;;;18.29;38.66
39435;BME280;66825;51.880;-0.518;2023-12-07T12:00:47;99649.53;;;18.31;38.65
39435;BME280;66825;51.880;-0.518;2023-12-07T12:03:13;99650.78;;;18.34;38.50
39435;BME280;66825;51.880;-0.518;2023-12-07T12:05:38;99650.13;;;18.37;38.74
39435;BME280;66825;51.880;-0.518;2023-12-07T12:08:06;99641.66;;;18.38;38.51
39435;BME280;66825;51.880;-0.518;2023-12-07T12:10:31;99544.41;;;17.77;38.70
39435;BME280;66825;51.880;-0.518;2023-12-07T12:12:56;99630.56;;;18.44;38.37
39435;BME280;66825;51.880;-0.518;2023-12-07T12:15:22;99618.97;;;18.47;38.46
39435;BME280;66825;51.880;-0.518;2023-12-07T12:17:47;99611.28;;;18.49;38.39
39435;BME280;66825;51.880;-0.518;2023-12-07T12:20:13;99615.28;;;18.51;38.29
39435;BME280;66825;51.880;-0.518;2023-12-07T12:22:42;99602.44;;;18.52;38.11
39435;BME280;66825;51.880;-0.518;2023-12-07T12:25:08;99593.94;;;18.53;38.24
39435;BME280;66825;51.880;-0.518;2023-12-07T12:27:33;99593.94;;;18.53;38.02
39435;BME280;66825;51.880;-0.518;2023-12-07T12:29:59;99601.00;;;18.54;38.19
39435;BME280;66825;51.880;-0.518;2023-12-07T12:32:24;99590.09;;;18.54;38.10
39435;BME280;66825;51.880;-0.518;2023-12-07T12:34:50;99583.03;;;18.53;38.12
39435;BME280;66825;51.880;-0.518;2023-12-07T12:37:16;99575.97;;;18.52;38.19
39435;BME280;66825;51.880;-0.518;2023-12-07T12:39:41;99561.53;;;18.52;37.99
39435;BME280;66825;51.880;-0.518;2023-12-07T12:42:06;99558.00;;;18.51;38.00
39435;BME280;66825;51.880;-0.518;2023-12-07T12:44:32;99550.16;;;18.50;37.69